sensor_id;sensor_type;location;lat;lon;timestamp;pressure;altitude;pressure_sealevel;temperature;humidity
37066;BME280;22981;43.080;25.550;2023-04-03T00:00:44;98994.71;;;7.65;64.33
37066;BME280;22981;43.080;25.550;2023-04-03T00:03:12;98988.27;;;7.64;64.34
37066;BME280;22981;43.080;25.550;2023-04-03T00:05:39;98984.81;;;7.57;64.38
37066;BME280;22981;43.080;25.550;2023-04-03T00:08:08;98984.05;;;7.49;64.47
37066;BME280;22981;43.080;25.550;2023-04-03T00:10:36;98981.17;;;7.44;64.57
37066;BME280;22981;43.080;25.550;2023-04-03T00:13:05;98984.47;;;7.40;64.58
37066;BME280;22981;43.080;25.550;2023-04-03T00:15:33;98978.84;;;7.39;64.69
37066;BME280;22981;43.080;25.550;2023-04-03T00:18:02;98980.34;;;7.28;64.56
37066;BME280;22981;43.080;25.550;2023-04-03T00:20:30;98983.12;;;7.17;64.78
37066;BME280;22981;43.080;25.550;2023-04-03T00:22:58;98977.20;;;7.09;64.86
37066;BME280;22981;43.080;25.550;2023-04-03T00:25:26;98978.53;;;7.09;64.97
37066;BME280;22981;43.080;25.550;2023-04-03T00:27:54;98970.84;;;7.10;65.00
37066;BME280;22981;43.080;25.550;2023-04-03T00:30:22;98978.42;;;7.13;64.98
37066;BME280;22981;43.080;25.550;2023-04-03T00:32:50;98971.77;;;7.13;65.10
37066;BME280;22981;43.080;25.550;2023-04-03T00:35:20;98976.98;;;7.17;65.03
37066;BME280;22981;43.080;25.550;2023-04-03T00:37:50;98977.20;;;7.15;65.06
37066;BME280;22981;43.080;25.550;2023-04-03T00:40:17;98977.50;;;7.16;65.10
37066;BME280;22981;43.080;25.550;2023-04-03T00:42:45;98970.55;;;7.15;65.03
37066;BME280;22981;43.080;25.550;2023-04-03T00:47:46;98965.85;;;7.04;65.01
37066;BME280;22981;43.080;25.550;2023-04-03T00:50:14;98967.30;;;7.00;65.02
37066;BME280;22981;43.080;25.550;2023-04-03T00:52:42;98971.09;;;6.88;65.19
37066;BME280;22981;43.080;25.550;2023-04-03T00:55:11;98967.95;;;6.82;65.20
37066;BME280;22981;43.080;25.550;2023-04-03T00:57:41;98977.56;;;6.76;65.21
37066;BME280;22981;43.080;25.550;2023-04-03T01:00:11;98975.84;;;6.66;65.39
37066;BME280;22981;43.080;25.550;2023-04-03T01:02:40;98973.09;;;6.57;65.54
37066;BME280;22981;43.080;25.550;2023-04-03T01:05:10;98967.89;;;6.60;65.64
37066;BME280;22981;43.080;25.550;2023-04-03T01:07:39;98973.70;;;6.66;65.56
37066;BME280;22981;43.080;25.550;2023-04-03T01:10:11;98971.45;;;6.69;65.51
37066;BME280;22981;43.080;25.550;2023-04-03T01:12:42;98971.53;;;6.72;65.45
37066;BME280;22981;43.080;25.550;2023-04-03T01:15:13;98969.50;;;6.74;65.42
37066;BME280;22981;43.080;25.550;2023-04-03T01:17:43;98972.97;;;6.74;65.36
37066;BME280;22981;43.080;25.550;2023-04-03T01:23:04;98972.78;;;6.69;65.45
37066;BME280;22981;43.080;25.550;2023-04-03T01:25:28;98972.97;;;6.68;65.47
37066;BME280;22981;43.080;25.550;2023-04-03T01:27:56;98983.82;;;6.66;65.55
37066;BME280;22981;43.080;25.550;2023-04-03T01:30:28;98988.65;;;6.60;65.59
37066;BME280;22981;43.080;25.550;2023-04-03T01:32:54;98991.71;;;6.44;65.69
37066;BME280;22981;43.080;25.550;2023-04-03T01:35:22;98990.36;;;6.37;65.87
37066;BME280;22981;43.080;25.550;2023-04-03T01:37:49;98997.83;;;6.38;65.84
37066;BME280;22981;43.080;25.550;2023-04-03T01:40:17;99005.32;;;6.38;65.87
37066;BME280;22981;43.080;25.550;2023-04-03T01:42:44;99006.13;;;6.39;65.88
37066;BME280;22981;43.080;25.550;2023-04-03T01:45:12;99000.00;;;6.38;65.92
37066;BME280;22981;43.080;25.550;2023-04-03T01:47:39;98998.45;;;6.40;65.97
37066;BME280;22981;43.080;25.550;2023-04-03T01:50:07;98996.31;;;6.39;65.85
37066;BME280;22981;43.080;25.550;2023-04-03T01:52:35;98996.41;;;6.22;65.87
37066;BME280;22981;43.080;25.550;2023-04-03T01:55:02;99004.97;;;6.04;66.01
37066;BME280;22981;43.080;25.550;2023-04-03T01:57:30;99008.72;;;5.92;66.22
37066;BME280;22981;43.080;25.550;2023-04-03T01:59:57;99006.20;;;5.91;66.32
37066;BME280;22981;43.080;25.550;2023-04-03T02:02:25;99011.04;;;5.91;66.25
37066;BME280;22981;43.080;25.550;2023-04-03T02:04:53;99013.52;;;5.93;66.29
37066;BME280;22981;43.080;25.550;2023-04-03T02:07:21;99009.44;;;5.97;66.23
37066;BME280;22981;43.080;25.550;2023-04-03T02:09:48;99014.03;;;5.99;66.15
37066;BME280;22981;43.080;25.550;2023-04-03T02:12:16;99009.95;;;6.03;66.15
37066;BME280;22981;43.080;25.550;2023-04-03T02:14:44;99019.58;;;6.04;66.13
37066;BME280;22981;43.080;25.550;2023-04-03T02:17:11;99018.34;;;6.07;66.18
37066;BME280;22981;43.080;25.550;2023-04-03T02:19:39;99022.94;;;6.02;66.15
37066;BME280;22981;43.080;25.550;2023-04-03T02:22:06;99016.77;;;5.95;66.30
37066;BME280;22981;43.080;25.550;2023-04-03T02:24:34;99014.87;;;5.82;66.27
37066;BME280;22981;43.080;25.550;2023-04-03T02:27:02;99010.66;;;5.70;66.46
37066;BME280;22981;43.080;25.550;2023-04-03T02:29:29;99004.50;;;5.63;66.63
37066;BME280;22981;43.080;25.550;2023-04-03T02:31:57;99009.69;;;5.61;66.69
37066;BME280;22981;43.080;25.550;2023-04-03T02:34:24;99014.43;;;5.65;66.66
37066;BME280;22981;43.080;25.550;2023-04-03T02:36:52;99012.08;;;5.73;66.48
37066;BME280;22981;43.080;25.550;2023-04-03T02:39:19;99014.14;;;5.77;66.37
37066;BME280;22981;43.080;25.550;2023-04-03T02:41:47;99009.98;;;5.79;66.30
37066;BME280;22981;43.080;25.550;2023-04-03T02:44:14;99008.95;;;5.80;66.28
37066;BME280;22981;43.080;25.550;2023-04-03T02:46:42;99006.69;;;5.77;66.37
37066;BME280;22981;43.080;25.550;2023-04-03T02:49:10;99000.86;;;5.77;66.48
37066;BME280;22981;43.080;25.550;2023-04-03T02:51:37;99007.11;;;5.81;66.56
37066;BME280;22981;43.080;25.550;2023-04-03T02:54:05;99010.31;;;5.87;66.55
37066;BME280;22981;43.080;25.550;2023-04-03T02:56:32;99008.02;;;5.77;66.45
37066;BME280;22981;43.080;25.550;2023-04-03T02:59:00;99017.61;;;5.71;66.49
37066;BME280;22981;43.080;25.550;2023-04-03T03:01:27;99019.27;;;5.55;66.54
37066;BME280;22981;43.080;25.550;2023-04-03T03:03:57;99028.94;;;5.45;66.83
37066;BME280;22981;43.080;25.550;2023-04-03T03:06:24;99021.19;;;5.44;66.93
37066;BME280;22981;43.080;25.550;2023-04-03T03:08:52;99013.11;;;5.48;66.93
37066;BME280;22981;43.080;25.550;2023-04-03T03:11:20;99025.61;;;5.54;66.80
37066;BME280;22981;43.080;25.550;2023-04-03T03:13:49;99029.20;;;5.57;66.64
37066;BME280;22981;43.080;25.550;2023-04-03T03:16:16;99025.22;;;5.57;66.51
37066;BME280;22981;43.080;25.550;2023-04-03T03:18:44;99028.70;;;5.58;66.42
37066;BME280;22981;43.080;25.550;2023-04-03T03:21:11;99021.11;;;5.55;66.46
37066;BME280;22981;43.080;25.550;2023-04-03T03:23:39;99024.28;;;5.54;66.50
37066;BME280;22981;43.080;25.550;2023-04-03T03:26:08;99015.45;;;5.47;66.67
37066;BME280;22981;43.080;25.550;2023-04-03T03:28:38;99024.53;;;5.42;66.76
37066;BME280;22981;43.080;25.550;2023-04-03T03:31:08;99023.16;;;5.35;66.94
37066;BME280;22981;43.080;25.550;2023-04-03T03:33:36;99029.41;;;5.38;66.99
37066;BME280;22981;43.080;25.550;2023-04-03T03:36:04;99027.70;;;5.41;66.95
37066;BME280;22981;43.080;25.550;2023-04-03T03:38:32;99019.86;;;5.44;66.91
37066;BME280;22981;43.080;25.550;2023-04-03T03:40:59;99025.25;;;5.40;66.88
37066;BME280;22981;43.080;25.550;2023-04-03T03:43:28;99021.95;;;5.38;66.93
37066;BME280;22981;43.080;25.550;2023-04-03T03:45:56;99021.27;;;5.40;66.97
37066;BME280;22981;43.080;25.550;2023-04-03T03:48:24;99023.08;;;5.39;66.95
37066;BME280;22981;43.080;25.550;2023-04-03T03:50:51;99019.42;;;5.40;67.05
37066;BME280;22981;43.080;25.550;2023-04-03T03:53:19;99019.51;;;5.36;67.10
37066;BME280;22981;43.080;25.550;2023-04-03T03:55:46;99016.22;;;5.34;67.15
37066;BME280;22981;43.080;25.550;2023-04-03T03:58:14;99016.85;;;5.36;67.20
37066;BME280;22981;43.080;25.550;2023-04-03T04:00:41;99015.91;;;5.33;67.17
37066;BME280;22981;43.080;25.550;2023-04-03T04:03:09;99012.52;;;5.28;67.18
37066;BME280;22981;43.080;25.550;2023-04-03T04:05:36;99014.23;;;5.25;67.11
37066;BME280;22981;43.080;25.550;2023-04-03T04:08:04;99012.68;;;5.20;67.12
37066;BME280;22981;43.080;25.550;2023-04-03T04:10:32;99013.14;;;5.13;67.12
37066;BME280;22981;43.080;25.550;2023-04-03T04:13:00;99015.41;;;4.99;67.21
37066;BME280;22981;43.080;25.550;2023-04-03T04:15:27;99014.74;;;4.90;67.49
37066;BME280;22981;43.080;25.550;2023-04-03T04:17:55;99015.99;;;4.94;67.63
37066;BME280;22981;43.080;25.550;2023-04-03T04:20:23;99011.56;;;5.01;67.49
37066;BME280;22981;43.080;25.550;2023-04-03T04:22:51;99014.55;;;5.09;67.31
37066;BME280;22981;43.080;25.550;2023-04-03T04:25:18;99017.63;;;5.13;67.16
37066;BME280;22981;43.080;25.550;2023-04-03T04:27:46;99017.02;;;5.11;67.10
37066;BME280;22981;43.080;25.550;2023-04-03T04:30:14;99012.22;;;5.10;67.20
37066;BME280;22981;43.080;25.550;2023-04-03T04:32:41;99019.91;;;5.16;67.16
37066;BME280;22981;43.080;25.550;2023-04-03T04:35:09;99021.23;;;5.16;67.03
37066;BME280;22981;43.080;25.550;2023-04-03T04:37:38;99023.02;;;5.09;67.16
37066;BME280;22981;43.080;25.550;2023-04-03T04:40:06;99024.98;;;5.11;67.26
37066;BME280;22981;43.080;25.550;2023-04-03T04:42:34;99021.73;;;5.15;67.10
37066;BME280;22981;43.080;25.550;2023-04-03T04:45:01;99020.13;;;5.21;66.92
37066;BME280;22981;43.080;25.550;2023-04-03T04:47:29;99023.22;;;5.24;66.75
37066;BME280;22981;43.080;25.550;2023-04-03T04:49:57;99029.72;;;5.22;66.75
37066;BME280;22981;43.080;25.550;2023-04-03T04:52:24;99042.69;;;5.21;66.83
37066;BME280;22981;43.080;25.550;2023-04-03T04:54:52;99046.08;;;5.25;66.93
37066;BME280;22981;43.080;25.550;2023-04-03T04:57:19;99050.92;;;5.33;67.03
37066;BME280;22981;43.080;25.550;2023-04-03T04:59:47;99048.21;;;5.43;67.00
37066;BME280;22981;43.080;25.550;2023-04-03T05:02:14;99052.03;;;5.51;66.90
37066;BME280;22981;43.080;25.550;2023-04-03T05:04:42;99053.48;;;5.54;66.98
37066;BME280;22981;43.080;25.550;2023-04-03T05:07:10;99055.25;;;5.58;67.14
37066;BME280;22981;43.080;25.550;2023-04-03T05:09:37;99054.52;;;5.53;67.26
37066;BME280;22981;43.080;25.550;2023-04-03T05:12:06;99057.33;;;5.45;67.42
37066;BME280;22981;43.080;25.550;2023-04-03T05:14:34;99071.80;;;5.42;67.68
37066;BME280;22981;43.080;25.550;2023-04-03T05:17:02;99069.73;;;5.38;67.80
37066;BME280;22981;43.080;25.550;2023-04-03T05:19:29;99079.08;;;5.44;68.02
37066;BME280;22981;43.080;25.550;2023-04-03T05:21:57;99077.30;;;5.58;67.90
37066;BME280;22981;43.080;25.550;2023-04-03T05:24:24;99077.23;;;5.69;67.80
37066;BME280;22981;43.080;25.550;2023-04-03T05:26:52;99088.34;;;5.86;67.61
37066;BME280;22981;43.080;25.550;2023-04-03T05:29:21;99080.06;;;6.02;67.51
37066;BME280;22981;43.080;25.550;2023-04-03T05:31:51;99086.66;;;6.19;67.35
37066;BME280;22981;43.080;25.550;2023-04-03T05:34:19;99085.17;;;6.34;67.21
37066;BME280;22981;43.080;25.550;2023-04-03T05:36:46;99088.04;;;6.46;67.27
37066;BME280;22981;43.080;25.550;2023-04-03T05:39:14;99082.34;;;6.62;67.25
37066;BME280;22981;43.080;25.550;2023-04-03T05:41:42;99082.34;;;6.75;67.19
37066;BME280;22981;43.080;25.550;2023-04-03T05:44:09;99082.44;;;6.85;67.17
37066;BME280;22981;43.080;25.550;2023-04-03T05:46:37;99087.48;;;6.90;67.14
37066;BME280;22981;43.080;25.550;2023-04-03T05:49:04;99088.70;;;6.94;67.22
37066;BME280;22981;43.080;25.550;2023-04-03T05:51:34;99086.03;;;7.01;67.24
37066;BME280;22981;43.080;25.550;2023-04-03T05:54:13;99085.22;;;7.07;67.23
37066;BME280;22981;43.080;25.550;2023-04-03T05:56:36;99088.67;;;7.14;67.17
37066;BME280;22981;43.080;25.550;2023-04-03T05:59:03;99089.88;;;7.32;67.17
37066;BME280;22981;43.080;25.550;2023-04-03T06:01:31;99086.15;;;7.52;67.13
37066;BME280;22981;43.080;25.550;2023-04-03T06:03:58;99086.50;;;7.76;66.97
37066;BME280;22981;43.080;25.550;2023-04-03T06:06:42;99085.89;;;7.96;66.77
37066;BME280;22981;43.080;25.550;2023-04-03T06:08:55;99084.64;;;8.06;66.50
37066;BME280;22981;43.080;25.550;2023-04-03T06:11:23;99076.20;;;8.09;66.44
37066;BME280;22981;43.080;25.550;2023-04-03T06:13:51;99074.05;;;8.08;66.49
37066;BME280;22981;43.080;25.550;2023-04-03T06:16:19;99064.08;;;8.13;66.58
37066;BME280;22981;43.080;25.550;2023-04-03T06:18:47;99060.84;;;8.26;66.64
37066;BME280;22981;43.080;25.550;2023-04-03T06:21:14;99069.70;;;8.36;66.50
37066;BME280;22981;43.080;25.550;2023-04-03T06:23:42;99066.73;;;8.35;66.44
37066;BME280;22981;43.080;25.550;2023-04-03T06:26:10;99071.70;;;8.25;66.47
37066;BME280;22981;43.080;25.550;2023-04-03T06:28:37;99075.83;;;8.21;66.55
37066;BME280;22981;43.080;25.550;2023-04-03T06:31:05;99082.91;;;8.18;66.69
37066;BME280;22981;43.080;25.550;2023-04-03T06:33:32;99081.33;;;8.26;66.71
37066;BME280;22981;43.080;25.550;2023-04-03T06:36:04;99082.20;;;8.42;66.62
37066;BME280;22981;43.080;25.550;2023-04-03T06:38:32;99079.89;;;8.52;66.43
37066;BME280;22981;43.080;25.550;2023-04-03T06:40:59;99084.68;;;8.69;66.41
37066;BME280;22981;43.080;25.550;2023-04-03T06:43:27;99077.05;;;8.88;66.29
37066;BME280;22981;43.080;25.550;2023-04-03T06:45:55;99091.87;;;9.09;66.00
37066;BME280;22981;43.080;25.550;2023-04-03T06:48:22;99091.84;;;9.25;65.75
37066;BME280;22981;43.080;25.550;2023-04-03T06:50:50;99086.71;;;9.42;65.59
37066;BME280;22981;43.080;25.550;2023-04-03T06:53:17;99091.72;;;9.57;65.40
37066;BME280;22981;43.080;25.550;2023-04-03T06:55:45;99091.48;;;9.67;65.07
37066;BME280;22981;43.080;25.550;2023-04-03T06:58:13;99089.03;;;9.75;64.98
37066;BME280;22981;43.080;25.550;2023-04-03T07:00:41;99096.03;;;9.85;64.83
37066;BME280;22981;43.080;25.550;2023-04-03T07:03:09;99094.00;;;9.99;64.75
37066;BME280;22981;43.080;25.550;2023-04-03T07:05:37;99099.47;;;10.13;64.58
37066;BME280;22981;43.080;25.550;2023-04-03T07:08:04;99092.56;;;10.24;64.53
37066;BME280;22981;43.080;25.550;2023-04-03T07:10:32;99091.52;;;10.34;64.50
37066;BME280;22981;43.080;25.550;2023-04-03T07:13:00;99097.08;;;10.42;64.64
37066;BME280;22981;43.080;25.550;2023-04-03T07:15:28;99106.70;;;10.52;64.60
37066;BME280;22981;43.080;25.550;2023-04-03T07:17:56;99098.63;;;10.61;64.26
37066;BME280;22981;43.080;25.550;2023-04-03T07:20:23;99099.72;;;10.72;64.21
37066;BME280;22981;43.080;25.550;2023-04-03T07:22:51;99098.98;;;10.86;64.13
37066;BME280;22981;43.080;25.550;2023-04-03T07:25:18;99100.56;;;10.96;63.86
37066;BME280;22981;43.080;25.550;2023-04-03T07:27:46;99094.13;;;11.06;63.81
37066;BME280;22981;43.080;25.550;2023-04-03T07:30:15;99091.11;;;11.14;63.81
37066;BME280;22981;43.080;25.550;2023-04-03T07:32:43;99093.56;;;11.27;63.81
37066;BME280;22981;43.080;25.550;2023-04-03T07:35:10;99094.37;;;11.40;63.62
37066;BME280;22981;43.080;25.550;2023-04-03T07:37:38;99093.70;;;11.59;63.41
37066;BME280;22981;43.080;25.550;2023-04-03T07:40:06;99102.41;;;11.77;63.33
37066;BME280;22981;43.080;25.550;2023-04-03T07:42:35;99096.66;;;11.95;63.28
37066;BME280;22981;43.080;25.550;2023-04-03T07:45:04;99089.27;;;12.02;62.95
37066;BME280;22981;43.080;25.550;2023-04-03T07:47:32;99090.11;;;12.17;62.95
37066;BME280;22981;43.080;25.550;2023-04-03T07:49:59;99088.85;;;12.36;62.54
37066;BME280;22981;43.080;25.550;2023-04-03T07:52:27;99085.06;;;12.49;62.28
37066;BME280;22981;43.080;25.550;2023-04-03T07:54:54;99090.20;;;12.67;61.95
37066;BME280;22981;43.080;25.550;2023-04-03T07:57:22;99089.14;;;12.83;61.49
37066;BME280;22981;43.080;25.550;2023-04-03T07:59:49;99087.27;;;13.00;60.96
37066;BME280;22981;43.080;25.550;2023-04-03T08:02:17;99090.66;;;13.26;60.43
37066;BME280;22981;43.080;25.550;2023-04-03T08:04:44;99083.16;;;13.45;59.27
37066;BME280;22981;43.080;25.550;2023-04-03T08:07:12;99076.01;;;13.53;58.59
37066;BME280;22981;43.080;25.550;2023-04-03T08:09:39;99069.09;;;13.60;58.25
37066;BME280;22981;43.080;25.550;2023-04-03T08:12:07;99076.58;;;13.77;57.85
37066;BME280;22981;43.080;25.550;2023-04-03T08:14:37;99071.39;;;13.93;57.51
37066;BME280;22981;43.080;25.550;2023-04-03T08:17:04;99069.40;;;14.08;57.07
37066;BME280;22981;43.080;25.550;2023-04-03T08:19:33;99072.77;;;14.20;56.50
37066;BME280;22981;43.080;25.550;2023-04-03T08:22:01;99061.38;;;14.37;55.98
37066;BME280;22981;43.080;25.550;2023-04-03T08:24:29;99062.41;;;14.58;55.24
37066;BME280;22981;43.080;25.550;2023-04-03T08:26:57;99061.22;;;14.73;54.65
37066;BME280;22981;43.080;25.550;2023-04-03T08:29:25;99058.86;;;14.82;54.43
37066;BME280;22981;43.080;25.550;2023-04-03T08:31:53;99045.97;;;14.89;54.08
37066;BME280;22981;43.080;25.550;2023-04-03T08:34:21;99033.06;;;14.94;54.21
37066;BME280;22981;43.080;25.550;2023-04-03T08:36:48;99034.70;;;14.97;54.14
37066;BME280;22981;43.080;25.550;2023-04-03T08:39:16;99023.09;;;14.92;54.06
37066;BME280;22981;43.080;25.550;2023-04-03T08:41:45;99025.21;;;14.90;54.27
37066;BME280;22981;43.080;25.550;2023-04-03T08:44:38;99022.25;;;14.89;54.20
37066;BME280;22981;43.080;25.550;2023-04-03T08:49:56;99023.63;;;14.94;54.05
37066;BME280;22981;43.080;25.550;2023-04-03T08:52:39;99017.22;;;15.02;54.07
37066;BME280;22981;43.080;25.550;2023-04-03T08:57:50;99013.98;;;15.00;54.29
37066;BME280;22981;43.080;25.550;2023-04-03T09:00:21;99013.69;;;14.97;53.97
37066;BME280;22981;43.080;25.550;2023-04-03T09:02:53;99018.00;;;14.95;53.81
37066;BME280;22981;43.080;25.550;2023-04-03T09:05:39;99015.54;;;14.94;53.66
37066;BME280;22981;43.080;25.550;2023-04-03T09:08:07;99014.49;;;14.95;53.38
37066;BME280;22981;43.080;25.550;2023-04-03T09:10:34;99012.69;;;15.11;53.44
37066;BME280;22981;43.080;25.550;2023-04-03T09:13:13;99012.25;;;15.26;53.32
37066;BME280;22981;43.080;25.550;2023-04-03T09:15:40;99011.52;;;15.39;52.70
37066;BME280;22981;43.080;25.550;2023-04-03T09:18:13;99017.73;;;15.44;52.51
37066;BME280;22981;43.080;25.550;2023-04-03T09:23:40;99010.92;;;15.82;51.33
37066;BME280;22981;43.080;25.550;2023-04-03T09:26:14;99009.62;;;15.99;50.95
37066;BME280;22981;43.080;25.550;2023-04-03T09:28:40;99006.94;;;16.07;50.50
37066;BME280;22981;43.080;25.550;2023-04-03T09:31:23;99001.28;;;16.16;50.13
37066;BME280;22981;43.080;25.550;2023-04-03T09:33:54;98998.61;;;16.19;49.86
37066;BME280;22981;43.080;25.550;2023-04-03T09:36:45;98993.20;;;16.29;49.85
37066;BME280;22981;43.080;25.550;2023-04-03T09:39:16;98992.39;;;16.44;50.00
37066;BME280;22981;43.080;25.550;2023-04-03T09:42:05;98985.66;;;16.54;49.63
37066;BME280;22981;43.080;25.550;2023-04-03T09:44:24;98983.77;;;16.55;49.22
37066;BME280;22981;43.080;25.550;2023-04-03T09:46:51;98983.77;;;16.62;49.31
37066;BME280;22981;43.080;25.550;2023-04-03T09:49:21;98978.64;;;16.81;49.62
37066;BME280;22981;43.080;25.550;2023-04-03T09:51:48;98979.98;;;16.96;49.68
37066;BME280;22981;43.080;25.550;2023-04-03T09:54:36;98975.34;;;17.15;49.45
37066;BME280;22981;43.080;25.550;2023-04-03T09:57:11;98971.80;;;17.27;48.31
37066;BME280;22981;43.080;25.550;2023-04-03T10:00:02;98972.64;;;17.17;47.90
37066;BME280;22981;43.080;25.550;2023-04-03T10:02:22;98977.22;;;17.19;48.39
37066;BME280;22981;43.080;25.550;2023-04-03T10:04:49;98978.31;;;17.18;48.35
37066;BME280;22981;43.080;25.550;2023-04-03T10:07:34;98977.23;;;17.22;48.41
37066;BME280;22981;43.080;25.550;2023-04-03T10:10:21;98977.47;;;17.28;48.53
37066;BME280;22981;43.080;25.550;2023-04-03T10:13:25;98981.25;;;17.35;48.06
37066;BME280;22981;43.080;25.550;2023-04-03T10:15:28;98980.13;;;17.38;47.14
37066;BME280;22981;43.080;25.550;2023-04-03T10:18:00;98974.22;;;17.31;46.98
37066;BME280;22981;43.080;25.550;2023-04-03T10:20:33;98968.28;;;17.24;46.98
37066;BME280;22981;43.080;25.550;2023-04-03T10:31:44;98957.25;;;17.02;47.83
37066;BME280;22981;43.080;25.550;2023-04-03T10:34:37;98951.00;;;17.15;48.15
37066;BME280;22981;43.080;25.550;2023-04-03T10:37:23;98953.33;;;17.44;48.07
37066;BME280;22981;43.080;25.550;2023-04-03T10:40:03;98948.61;;;17.73;47.66
37066;BME280;22981;43.080;25.550;2023-04-03T10:45:38;98937.41;;;17.95;47.28
37066;BME280;22981;43.080;25.550;2023-04-03T10:53:41;98934.30;;;17.65;47.37
37066;BME280;22981;43.080;25.550;2023-04-03T10:56:31;98931.95;;;17.45;47.50
37066;BME280;22981;43.080;25.550;2023-04-03T10:59:12;98928.77;;;17.31;47.49
37066;BME280;22981;43.080;25.550;2023-04-03T11:01:38;98926.11;;;17.15;47.67
37066;BME280;22981;43.080;25.550;2023-04-03T11:04:07;98921.30;;;16.97;47.73
37066;BME280;22981;43.080;25.550;2023-04-03T11:06:41;98917.02;;;16.81;47.90
37066;BME280;22981;43.080;25.550;2023-04-03T11:11:45;98904.84;;;16.60;48.17
37066;BME280;22981;43.080;25.550;2023-04-03T11:14:31;98898.92;;;16.58;48.54
37066;BME280;22981;43.080;25.550;2023-04-03T11:17:40;98891.62;;;16.59;48.96
37066;BME280;22981;43.080;25.550;2023-04-03T11:19:59;98896.20;;;16.63;48.79
37066;BME280;22981;43.080;25.550;2023-04-03T11:25:04;98892.97;;;16.59;48.77
37066;BME280;22981;43.080;25.550;2023-04-03T11:27:39;98888.92;;;16.59;48.65
37066;BME280;22981;43.080;25.550;2023-04-03T11:30:02;98883.77;;;16.57;48.73
37066;BME280;22981;43.080;25.550;2023-04-03T11:32:49;98884.08;;;16.53;48.41
37066;BME280;22981;43.080;25.550;2023-04-03T11:35:11;98881.08;;;16.52;48.34
37066;BME280;22981;43.080;25.550;2023-04-03T11:37:52;98886.22;;;16.51;48.44
37066;BME280;22981;43.080;25.550;2023-04-03T11:40:24;98896.21;;;16.48;48.37
37066;BME280;22981;43.080;25.550;2023-04-03T11:51:02;98896.48;;;16.44;48.45
37066;BME280;22981;43.080;25.550;2023-04-03T11:53:38;98892.44;;;16.44;48.50
37066;BME280;22981;43.080;25.550;2023-04-03T12:04:17;98888.15;;;16.15;48.61
37066;BME280;22981;43.080;25.550;2023-04-03T12:06:51;98891.09;;;16.06;48.98
37066;BME280;22981;43.080;25.550;2023-04-03T12:09:56;98887.57;;;15.92;49.10
37066;BME280;22981;43.080;25.550;2023-04-03T12:14:51;98886.20;;;15.69;48.99
37066;BME280;22981;43.080;25.550;2023-04-03T12:17:22;98883.18;;;15.61;49.14
37066;BME280;22981;43.080;25.550;2023-04-03T12:19:50;98886.97;;;15.60;49.41
37066;BME280;22981;43.080;25.550;2023-04-03T12:22:20;98889.66;;;15.60;49.48
37066;BME280;22981;43.080;25.550;2023-04-03T12:24:52;98889.10;;;15.58;48.84
37066;BME280;22981;43.080;25.550;2023-04-03T12:27:28;98887.47;;;15.54;48.65
37066;BME280;22981;43.080;25.550;2023-04-03T12:32:54;98882.33;;;15.50;47.76
37066;BME280;22981;43.080;25.550;2023-04-03T12:35:28;98880.71;;;15.44;47.64
37066;BME280;22981;43.080;25.550;2023-04-03T12:46:38;98890.11;;;15.31;48.07
37066;BME280;22981;43.080;25.550;2023-04-03T12:51:49;98880.69;;;15.41;48.00
37066;BME280;22981;43.080;25.550;2023-04-03T12:54:31;98886.39;;;15.47;47.98
37066;BME280;22981;43.080;25.550;2023-04-03T12:57:13;98878.03;;;15.46;47.93
37066;BME280;22981;43.080;25.550;2023-04-03T12:59:41;98879.38;;;15.46;48.08
37066;BME280;22981;43.080;25.550;2023-04-03T13:02:29;98870.75;;;15.47;48.11
37066;BME280;22981;43.080;25.550;2023-04-03T13:04:56;98872.34;;;15.45;48.22
37066;BME280;22981;43.080;25.550;2023-04-03T13:07:28;98866.16;;;15.42;48.24
37066;BME280;22981;43.080;25.550;2023-04-03T13:12:52;98868.02;;;15.39;48.57
37066;BME280;22981;43.080;25.550;2023-04-03T13:15:22;98858.30;;;15.33;48.52
37066;BME280;22981;43.080;25.550;2023-04-03T13:17:52;98861.50;;;15.27;48.55
37066;BME280;22981;43.080;25.550;2023-04-03T13:20:36;98859.34;;;15.22;48.87
37066;BME280;22981;43.080;25.550;2023-04-03T13:23:02;98862.56;;;15.16;49.16
37066;BME280;22981;43.080;25.550;2023-04-03T13:25:33;98871.45;;;15.12;49.20
37066;BME280;22981;43.080;25.550;2023-04-03T13:28:04;98863.32;;;15.04;49.49
37066;BME280;22981;43.080;25.550;2023-04-03T13:30:37;98863.03;;;15.00;49.93
37066;BME280;22981;43.080;25.550;2023-04-03T13:33:21;98861.12;;;14.98;50.49
37066;BME280;22981;43.080;25.550;2023-04-03T13:35:54;98849.52;;;14.93;51.12
37066;BME280;22981;43.080;25.550;2023-04-03T13:40:54;98856.45;;;14.81;51.63
37066;BME280;22981;43.080;25.550;2023-04-03T13:43:25;98848.89;;;14.75;51.97
37066;BME280;22981;43.080;25.550;2023-04-03T13:48:24;98847.20;;;14.64;53.01
37066;BME280;22981;43.080;25.550;2023-04-03T13:51:12;98838.30;;;14.59;53.42
37066;BME280;22981;43.080;25.550;2023-04-03T13:53:40;98842.85;;;14.53;53.74
37066;BME280;22981;43.080;25.550;2023-04-03T13:56:09;98839.32;;;14.50;53.94
37066;BME280;22981;43.080;25.550;2023-04-03T13:58:37;98836.30;;;14.46;54.23
37066;BME280;22981;43.080;25.550;2023-04-03T14:03:52;98840.83;;;14.36;54.84
37066;BME280;22981;43.080;25.550;2023-04-03T14:06:15;98835.92;;;14.30;55.31
37066;BME280;22981;43.080;25.550;2023-04-03T14:08:44;98836.97;;;14.24;55.70
37066;BME280;22981;43.080;25.550;2023-04-03T14:11:24;98834.52;;;14.20;56.10
37066;BME280;22981;43.080;25.550;2023-04-03T14:13:53;98833.14;;;14.15;56.35
37066;BME280;22981;43.080;25.550;2023-04-03T14:16:25;98842.00;;;14.13;56.47
37066;BME280;22981;43.080;25.550;2023-04-03T14:18:53;98835.80;;;14.12;56.73
37066;BME280;22981;43.080;25.550;2023-04-03T14:21:21;98831.77;;;14.10;57.07
37066;BME280;22981;43.080;25.550;2023-04-03T14:23:49;98843.58;;;14.09;57.68
37066;BME280;22981;43.080;25.550;2023-04-03T14:26:22;98845.19;;;14.07;58.25
37066;BME280;22981;43.080;25.550;2023-04-03T14:28:53;98841.66;;;14.04;58.83